METAR Data
IDs: Format: Raw Decoded Include TAF

Data at: 1327 UTC 16 Oct 2018

PASK 161256Z AUTO 04015KT 10SM CLR 01/M05 A2942 RMK AO2 SLP958 T00111050 FZRANO $
PASK 161156Z AUTO 03017KT 10SM CLR 01/M05 A2943 RMK AO2 SLP963 7//// T00111050 10022 20011 56021 FZRANO $
PASK 161056Z AUTO 03017G22KT 10SM BKN120 01/M04 A2944 RMK AO2 SLP967 T00111044 FZRANO $
PASK 160956Z AUTO 03017KT 10SM BKN100 02/M04 A2948 RMK AO2 SLP979 T00171044 FZRANO $
PASK 160856Z AUTO 04016KT 10SM OVC100 02/M04 A2949 RMK AO2 SLP985 T00221044 400281017 FZRANO $
PASK 160756Z AUTO 04019G24KT 10SM OVC100 02/M04 A2952 RMK AO2 SLP992 T00221044 FZRANO $
PASK 160656Z AUTO 04018KT 10SM OVC095 02/M04 A2954 RMK AO2 SLP999 T00221039 FZRANO $
PASK 160556Z AUTO 04017KT 10SM BKN110 02/M04 RMK AO2 SLPNO T00221039 10022 20022 FZRANO $
PASK 160456Z AUTO 04018G23KT 10SM SCT120 02/M04 A2956 RMK AO2 SLP007 T00221039 FZRANO $
PASK 160356Z AUTO 04017KT 10SM SCT120 02/M03 A2958 RMK AO2 SLP015 T00221033 FZRANO $
PASK 160256Z AUTO 04017KT 10SM CLR 02/M03 A2961 RMK AO2 SLP025 T00221028 58031 FZRANO $
PASK 160156Z AUTO 04017KT 10SM CLR 02/M03 A2964 RMK AO2 SLP035 T00221028 FZRANO $
PASK 160056Z AUTO 04016KT 10SM CLR 02/M02 A2968 RMK AO2 SLP047 T00221022 FZRANO $
PASK 152356Z AUTO 05016KT 10SM CLR 02/M03 A2970 RMK AO2 SLP056 T00221028 10028 21006 58022 FZRANO $
PASK 152256Z AUTO 05016KT 10SM CLR 03/M03 A2973 RMK AO2 SLP064 T00281028 $
PASK 152156Z AUTO 05016G21KT 10SM CLR 03/M03 A2975 RMK AO2 SLP073 T00281028 $
PASK 152104Z AUTO 03016KT 10SM FEW001 02/M03 A2976 RMK AO2 FZRANO $
PASK 152056Z AUTO 03015KT 10SM CLR 02/M03 A2977 RMK AO2 SLP078 T00171028 58013 FZRANO $
PASK 151956Z AUTO 04015KT 10SM CLR 01/M03 A2979 RMK AO2 SLP086 T00111028 FZRANO $
PASK 151856Z AUTO 04017KT 10SM CLR 01/M03 A2979 RMK AO2 SLP086 T00061028 FZRANO $
PASK 151756Z AUTO 04015KT 10SM CLR M01/M03 A2981 RMK AO2 SLP090 6//// T10061028 11006 21017 58006 FZRANO $
PASK 151656Z AUTO 05011KT 10SM CLR M01/M02 A2981 RMK AO2 SLP093 T10061022 FZRANO $
PASK 151556Z AUTO 04011KT 10SM CLR M01/M02 A2982 RMK AO2 SLP096 T10111017 FZRANO $
PASK 151456Z AUTO 04007KT 10SM CLR M01/M02 A2983 RMK AO2 SLP097 T10111017 56015 FZRANO $
PASK 151356Z AUTO 06007KT 10SM CLR M01/M02 A2984 RMK AO2 SLP101 T10111017 FZRANO $
PASK 151256Z AUTO 05008KT 10SM CLR M02/M02 A2985 RMK AO2 SLP106 T10171022 FZRANO $
PASK 151156Z AUTO 06008KT 10SM CLR M01/M01 A2987 RMK AO2 SLP111 6//// 7//// T10061011 10006 21011 55002 FZRANO $
PASK 151056Z AUTO 06007KT 10SM CLR M01/M01 A2987 RMK AO2 SLP111 T10061011 FZRANO $
PASK 150956Z AUTO 05004KT 10SM CLR M01/M02 A2987 RMK AO2 SLP111 T10111017 FZRANO $
PASK 150856Z AUTO 05005KT 10SM CLR M01/M02 A2987 RMK AO2 SLP113 6//// T10111017 400441011 53002 FZRANO $
PASK 150756Z AUTO 04007KT 10SM CLR M01/M01 A2986 RMK AO2 SLP110 T10061011 FZRANO $
PASK 150656Z AUTO 05006KT 10SM CLR M01/M01 A2986 RMK AO2 SLP110 T10061011 FZRANO $
PASK 150556Z AUTO 06007KT 10SM CLR 01/00 A2987 RMK AO2 SLP111 T00060000 10039 20006 53004 FZRANO $
PASK 150456Z AUTO 07009KT 10SM CLR 01/00 A2986 RMK AO2 SLP108 T00110000 FZRANO $
PASK 150356Z AUTO 05008KT 10SM CLR 02/01 A2985 RMK AO2 SLP106 T00170006 FZRANO $
PASK 150256Z AUTO 05006KT 10SM CLR 02/01 A2985 RMK AO2 SLP107 T00220011 55004 FZRANO $
PASK 150156Z AUTO 07008KT 10SM CLR 04/02 A2985 RMK AO2 SLP107 T00390017 $